Time;durP1;ratioP1;P1;durP2;ratioP2;P2;SDS_P1;SDS_P2;PMS_P1;PMS_P2;Temp;Humidity;BMP_temperature;BMP_pressure;BME280_temperature;BME280_humidity;BME280_pressure;Samples;Min_cycle;Max_cycle;Signal;HPM_P1;HPM_P2
2022/09/20 00:03:42;;;;;;;7.50;2.92;;;;;;;10.42;100.00;100277.38;12211877;19;20024;-77
2022/09/20 00:07:44;;;;;;;6.82;3.10;;;;;;;10.43;100.00;100279.06;12195820;19;20022;-78
2022/09/20 00:11:46;;;;;;;7.30;2.00;;;;;;;10.41;100.00;100287.56;12226810;19;20010;-78
2022/09/20 00:15:47;;;;;;;10.82;3.20;;;;;;;10.43;100.00;100281.81;12204759;19;20267;-77
2022/09/20 00:19:49;;;;;;;7.57;2.85;;;;;;;10.43;100.00;100279.06;12225541;19;20021;-78
2022/09/20 00:23:51;;;;;;;11.52;2.92;;;;;;;10.40;100.00;100288.63;12227724;19;20019;-78
2022/09/20 00:27:53;;;;;;;8.10;3.17;;;;;;;10.39;100.00;100288.88;12200169;19;20011;-77
2022/09/20 00:31:54;;;;;;;7.28;2.85;;;;;;;10.40;100.00;100290.53;12222588;19;20023;-77
2022/09/20 00:35:57;;;;;;;9.02;2.63;;;;;;;10.41;100.00;100293.09;12220124;19;20027;-77
2022/09/20 00:39:59;;;;;;;9.55;3.28;;;;;;;10.42;100.00;100289.25;12202190;19;20014;-78
2022/09/20 00:44:02;;;;;;;6.75;3.03;;;;;;;10.39;100.00;100288.88;12204988;19;20085;-77
2022/09/20 00:48:22;;;;;;;10.90;3.22;;;;;;;10.33;100.00;100287.91;12207169;19;20014;-77
2022/09/20 00:52:26;;;;;;;10.18;3.20;;;;;;;10.25;100.00;100283.53;12186391;19;20034;-77
2022/09/20 00:56:35;;;;;;;8.25;3.30;;;;;;;10.20;100.00;100279.81;12207862;19;20460;-78
2022/09/20 01:00:37;;;;;;;8.27;2.70;;;;;;;10.14;100.00;100284.38;12208776;19;20010;-78
2022/09/20 01:04:41;;;;;;;11.55;3.35;;;;;;;10.14;100.00;100289.00;12184746;19;20006;-77
2022/09/20 01:08:49;;;;;;;13.15;3.10;;;;;;;10.17;100.00;100294.91;12208578;19;20030;-77
2022/09/20 01:12:52;;;;;;;7.07;2.97;;;;;;;10.21;100.00;100287.00;12185655;19;20017;-78
2022/09/20 01:16:56;;;;;;;6.88;3.05;;;;;;;10.23;100.00;100295.84;12204976;19;20010;-77
2022/09/20 01:21:00;;;;;;;9.82;3.47;;;;;;;10.19;100.00;100297.41;12202650;19;20055;-77
2022/09/20 01:25:13;;;;;;;7.65;3.25;;;;;;;10.15;100.00;100290.72;12181813;19;20474;-77
2022/09/20 01:29:40;;;;;;;11.13;4.30;;;;;;;10.05;100.00;100285.75;12206252;19;20038;-77
2022/09/20 01:33:48;;;;;;;7.57;3.40;;;;;;;9.94;100.00;100290.16;12203870;19;20006;-77
2022/09/20 01:38:32;;;;;;;14.52;3.70;;;;;;;9.86;100.00;100287.72;12182721;19;20034;-77
2022/09/20 01:42:38;;;;;;;;;;;;;;;9.75;100.00;100294.84;12203640;19;20006;-77
2022/09/20 01:46:41;;;;;;;9.35;3.28;;;;;;;9.64;100.00;100300.31;12182932;19;20325;-77
2022/09/20 01:51:27;;;;;;;13.68;3.88;;;;;;;9.54;100.00;100298.13;12205162;19;20017;-77
2022/09/20 01:55:57;;;;;;;11.75;3.78;;;;;;;9.44;100.00;100293.16;12182726;19;20015;-77
2022/09/20 02:00:22;;;;;;;6.68;3.70;;;;;;;9.37;100.00;100295.16;12205324;19;20446;-77
2022/09/20 02:04:43;;;;;;;14.32;4.05;;;;;;;9.29;100.00;100284.47;12180768;19;20026;-77
2022/09/20 02:09:10;;;;;;;8.45;3.60;;;;;;;9.23;100.00;100288.13;12205758;19;20037;-78
2022/09/20 02:13:32;;;;;;;8.85;3.83;;;;;;;9.17;100.00;100283.56;12184889;19;20356;-77
2022/09/20 02:17:52;;;;;;;10.93;3.95;;;;;;;9.11;100.00;100277.91;12196784;19;20011;-77
2022/09/20 02:22:24;;;;;;;12.75;4.18;;;;;;;9.05;100.00;100292.56;12182355;19;20219;-77
2022/09/20 02:26:50;;;;;;;12.95;4.20;;;;;;;9.01;100.00;100291.34;12202358;19;20374;-77
2022/09/20 02:31:18;;;;;;;12.75;4.28;;;;;;;8.99;100.00;100295.38;12190848;19;20019;-78
2022/09/20 02:35:34;;;;;;;12.45;4.38;;;;;;;8.94;100.00;100293.31;12201850;19;20014;-77
2022/09/20 02:39:47;;;;;;;13.60;4.78;;;;;;;8.89;100.00;100294.00;12203353;19;20010;-77
2022/09/20 02:44:07;;;;;;;15.90;5.10;;;;;;;8.83;100.00;100289.41;12179383;19;20096;-77
2022/09/20 02:48:09;;;;;;;16.00;5.15;;;;;;;8.80;100.00;100297.25;12202072;19;20014;-77
2022/09/20 02:52:24;;;;;;;14.70;4.32;;;;;;;8.77;100.00;100293.03;12178733;19;20506;-77
2022/09/20 02:56:54;;;;;;;12.75;5.15;;;;;;;8.76;100.00;100285.88;12199025;19;20784;-77
2022/09/20 03:01:15;;;;;;;13.82;4.82;;;;;;;8.70;100.00;100286.78;12198596;19;20033;-77
2022/09/20 03:05:24;;;;;;;15.90;5.03;;;;;;;8.68;100.00;100291.66;12219184;19;20023;-77
2022/09/20 03:09:43;;;;;;;11.35;4.50;;;;;;;8.67;100.00;100299.06;12220012;19;20024;-77
2022/09/20 03:14:00;;;;;;;14.93;5.75;;;;;;;8.65;100.00;100295.69;12202830;19;20060;-77
2022/09/20 03:18:23;;;;;;;15.75;4.93;;;;;;;8.63;100.00;100297.00;12216974;19;20372;-77
2022/09/20 03:22:43;;;;;;;;;;;;;;;8.61;100.00;100310.13;12194952;19;20050;-77
2022/09/20 03:27:04;;;;;;;12.70;5.03;;;;;;;8.56;100.00;100310.78;12211312;19;19911;-77
2022/09/20 03:31:46;;;;;;;12.10;4.65;;;;;;;8.54;100.00;100321.16;12192643;19;20023;-77
2022/09/20 03:36:21;;;;;;;11.05;5.35;;;;;;;8.53;100.00;100313.97;12209154;19;20010;-77
2022/09/20 03:40:49;;;;;;;9.02;4.63;;;;;;;8.51;100.00;100320.78;12190024;19;20010;-77
2022/09/20 03:45:06;;;;;;;13.18;5.38;;;;;;;8.49;100.00;100311.91;12210265;19;20010;-77
2022/09/20 03:49:46;;;;;;;16.92;5.88;;;;;;;8.46;100.00;100307.72;12190491;19;20015;-77
2022/09/20 03:54:16;;;;;;;11.30;5.05;;;;;;;8.43;100.00;100313.66;12211886;19;20014;-77
2022/09/20 03:58:33;;;;;;;18.40;5.85;;;;;;;8.43;100.00;100324.63;12194767;19;20014;-76
2022/09/20 04:02:40;;;;;;;14.55;5.55;;;;;;;8.42;100.00;100325.72;12209978;19;20226;-77
2022/09/20 04:07:04;;;;;;;10.20;5.50;;;;;;;8.41;100.00;100330.34;12210120;19;20506;-78
2022/09/20 04:11:11;;;;;;;;;;;;;;;8.38;100.00;100327.16;12190016;19;20038;-78
2022/09/20 04:15:22;;;;;;;25.17;6.65;;;;;;;8.37;100.00;100331.00;12203732;19;19915;-77
2022/09/20 04:19:40;;;;;;;20.88;5.35;;;;;;;8.33;100.00;100330.59;12187966;19;20006;-77
2022/09/20 04:23:51;;;;;;;12.90;5.35;;;;;;;8.34;100.00;100332.28;12206310;19;20018;-77
2022/09/20 04:28:01;;;;;;;14.43;6.22;;;;;;;8.38;100.00;100328.03;12209264;19;20039;-77
2022/09/20 04:32:42;;;;;;;18.45;6.03;;;;;;;8.40;100.00;100333.31;12186583;19;20063;-78
2022/09/20 04:37:05;;;;;;;17.05;5.95;;;;;;;8.40;100.00;100342.41;12205974;19;20046;-76
2022/09/20 04:41:27;;;;;;;15.70;6.03;;;;;;;8.36;100.00;100343.88;12185445;19;20011;-77
2022/09/20 04:45:58;;;;;;;16.10;6.32;;;;;;;8.35;100.00;100349.59;12207605;19;19999;-77
2022/09/20 04:50:22;;;;;;;14.90;6.22;;;;;;;8.33;100.00;100340.72;12187345;19;20372;-77
2022/09/20 04:54:44;;;;;;;11.80;6.07;;;;;;;8.28;100.00;100348.81;12203064;19;20767;-77
2022/09/20 04:58:47;;;;;;;13.93;6.10;;;;;;;8.24;100.00;100351.16;12186041;19;20014;-76
2022/09/20 05:03:10;;;;;;;18.73;6.22;;;;;;;8.26;100.00;100356.41;12205194;19;20054;-77
2022/09/20 05:07:20;;;;;;;16.83;6.15;;;;;;;8.25;100.00;100360.22;12188233;19;20022;-78
2022/09/20 05:11:45;;;;;;;18.23;6.63;;;;;;;8.26;100.00;100364.66;12203163;19;20010;-77
2022/09/20 05:15:53;;;;;;;17.05;6.28;;;;;;;8.27;100.00;100360.81;12198640;19;20014;-78
2022/09/20 05:20:17;;;;;;;21.20;6.60;;;;;;;8.28;100.00;100365.28;12171517;19;20002;-78
2022/09/20 05:24:39;;;;;;;19.63;6.70;;;;;;;8.30;100.00;100360.38;12208170;19;20007;-77
2022/09/20 05:29:15;;;;;;;20.42;7.15;;;;;;;8.31;100.00;100368.41;12179186;19;20033;-77
2022/09/20 05:33:36;;;;;;;17.08;6.82;;;;;;;8.32;100.00;100372.81;12207722;19;20504;-78
2022/09/20 05:37:40;;;;;;;18.70;6.53;;;;;;;8.29;100.00;100366.94;12183176;19;20045;-77
2022/09/20 05:41:53;;;;;;;19.08;7.05;;;;;;;8.26;100.00;100361.91;12206845;19;20007;-77
2022/09/20 05:46:46;;;;;;;15.82;7.03;;;;;;;8.26;100.00;100372.88;12209306;19;20014;-77
2022/09/20 05:50:58;;;;;;;13.70;4.50;;;;;;;8.25;100.00;100388.50;12106532;19;2004960;-77
2022/09/20 05:55:09;;;;;;;10.70;5.55;;;;;;;8.28;100.00;100398.22;12185977;19;20015;-78
2022/09/20 05:59:26;;;;;;;18.48;6.18;;;;;;;8.35;100.00;100399.00;12209509;19;20729;-78
2022/09/20 06:03:38;;;;;;;17.48;7.13;;;;;;;8.50;100.00;100407.81;12208360;19;20030;-78
2022/09/20 06:07:44;;;;;;;15.95;6.55;;;;;;;8.73;100.00;100412.72;12188516;19;20018;-77
2022/09/20 06:12:13;;;;;;;20.10;6.95;;;;;;;9.03;100.00;100401.91;12208756;19;20133;-78
2022/09/20 06:16:31;;;;;;;15.85;6.45;;;;;;;9.34;100.00;100406.47;12185632;19;20451;-77
2022/09/20 06:21:11;;;;;;;17.85;7.53;;;;;;;9.65;100.00;100403.81;12208853;19;20025;-77
2022/09/20 06:25:19;;;;;;;14.68;5.75;;;;;;;9.92;100.00;100404.34;12182570;19;20455;-77
2022/09/20 06:29:32;;;;;;;15.07;5.88;;;;;;;10.15;100.00;100400.88;12207065;19;20085;-78
2022/09/20 06:33:48;;;;;;;13.65;5.47;;;;;;;10.37;100.00;100401.22;12207807;19;20010;-78
2022/09/20 06:42:23;;;;;;;9.07;4.33;;;;;;;10.63;100.00;100398.06;12213424;19;20558;-78
2022/09/20 06:46:30;;;;;;;9.52;4.97;;;;;;;10.76;100.00;100399.75;12207409;19;20061;-77
2022/09/20 06:50:35;;;;;;;13.98;5.25;;;;;;;10.86;100.00;100404.72;12218736;19;19999;-78
2022/09/20 06:54:37;;;;;;;13.40;5.35;;;;;;;11.02;100.00;100411.44;12217886;19;20023;-78
2022/09/20 06:58:38;;;;;;;10.30;4.93;;;;;;;11.15;100.00;100408.44;12198832;19;20014;-77
2022/09/20 07:02:43;;;;;;;12.43;4.45;;;;;;;11.25;100.00;100405.94;12214415;19;20476;-78
2022/09/20 07:06:44;;;;;;;10.45;4.28;;;;;;;11.41;100.00;100419.00;12217849;19;20363;-77
2022/09/20 07:10:47;;;;;;;10.32;4.28;;;;;;;11.47;100.00;100413.59;12196759;19;20435;-77
2022/09/20 07:14:49;;;;;;;10.20;4.73;;;;;;;11.42;100.00;100419.84;12218010;19;20006;-78
2022/09/20 07:18:51;;;;;;;11.00;4.70;;;;;;;11.37;100.00;100428.84;12219969;19;20014;-79
2022/09/20 07:22:53;;;;;;;12.98;4.50;;;;;;;11.36;100.00;100424.41;12197009;19;20267;-78
2022/09/20 07:27:00;;;;;;;12.05;4.75;;;;;;;11.55;100.00;100427.03;12213824;19;20015;-78
2022/09/20 07:31:02;;;;;;;14.30;4.78;;;;;;;11.77;100.00;100433.59;12196356;19;20011;-78
2022/09/20 07:35:04;;;;;;;8.65;4.00;;;;;;;11.97;100.00;100433.25;12217570;19;20039;-78
2022/09/20 07:39:07;;;;;;;13.43;5.07;;;;;;;12.21;100.00;100447.81;12220965;19;20045;-78
2022/09/20 07:43:08;;;;;;;10.43;4.43;;;;;;;12.31;100.00;100438.91;12195660;19;20018;-77
2022/09/20 07:47:12;;;;;;;15.00;4.80;;;;;;;12.17;100.00;100456.88;12218329;19;20010;-78
2022/09/20 07:51:14;;;;;;;8.52;3.50;;;;;;;11.96;100.00;100450.91;12218950;19;20006;-77
2022/09/20 07:55:16;;;;;;;17.02;3.97;;;;;;;11.80;100.00;100463.50;12192205;19;20007;-78
2022/09/20 07:59:18;;;;;;;18.20;5.13;;;;;;;11.71;100.00;100459.41;12222759;19;20007;-78
2022/09/20 08:03:20;;;;;;;11.18;4.22;;;;;;;11.90;100.00;100456.53;12216779;19;20034;-78
2022/09/20 08:07:22;;;;;;;14.50;5.73;;;;;;;12.01;100.00;100456.53;12195579;19;20024;-77
2022/09/20 08:11:24;;;;;;;17.58;5.20;;;;;;;12.05;100.00;100462.41;12217705;19;20115;-78
2022/09/20 08:15:30;;;;;;;16.48;5.45;;;;;;;12.22;100.00;100462.47;12212974;19;20007;-78
2022/09/20 08:19:32;;;;;;;18.15;4.88;;;;;;;12.60;100.00;100464.63;12194101;19;20028;-78
2022/09/20 08:23:38;;;;;;;12.25;4.68;;;;;;;13.10;100.00;100458.34;12217411;19;20466;-77
2022/09/20 08:27:39;;;;;;;13.30;5.32;;;;;;;13.85;100.00;100468.09;12216396;19;20021;-78
2022/09/20 08:31:41;;;;;;;10.07;4.90;;;;;;;14.50;100.00;100466.44;12197277;19;20026;-77
2022/09/20 08:35:47;;;;;;;14.35;5.40;;;;;;;14.77;100.00;100465.66;12220273;19;20002;-78
2022/09/20 08:39:49;;;;;;;13.90;5.03;;;;;;;14.98;100.00;100467.50;12220814;19;20010;-79
2022/09/20 08:44:10;;;;;;;14.43;5.40;;;;;;;15.01;100.00;100477.25;12198042;19;20026;-78
2022/09/20 08:48:15;;;;;;;12.88;5.45;;;;;;;15.10;100.00;100469.28;12218020;19;20192;-79
2022/09/20 08:52:24;;;;;;;9.95;4.90;;;;;;;14.90;97.24;100476.34;12192335;19;20407;-79
2022/09/20 08:56:31;;;;;;;15.38;4.78;;;;;;;14.92;97.01;100474.13;12217175;19;20351;-78
2022/09/20 09:00:35;;;;;;;16.85;5.00;;;;;;;14.97;95.61;100471.41;12216774;19;20003;-78
2022/09/20 09:04:37;;;;;;;10.40;4.75;;;;;;;14.98;95.80;100470.28;12192412;19;20045;-78
2022/09/20 09:08:39;;;;;;;10.85;5.22;;;;;;;14.82;94.23;100465.72;12215901;19;20003;-79
2022/09/20 09:12:45;;;;;;;12.33;4.17;;;;;;;14.66;92.72;100466.63;12212908;19;20003;-79
2022/09/20 09:16:49;;;;;;;14.93;4.85;;;;;;;14.62;92.68;100463.53;12196185;19;20102;-78
2022/09/20 09:20:51;;;;;;;13.18;5.10;;;;;;;14.56;93.41;100462.66;12218171;19;20076;-79
2022/09/20 09:25:16;;;;;;;12.15;4.80;;;;;;;14.90;92.93;100468.00;12216007;19;22497;-79
2022/09/20 09:29:20;;;;;;;13.77;5.45;;;;;;;15.09;91.45;100464.84;12191999;19;20011;-78
2022/09/20 09:33:29;;;;;;;17.55;4.13;;;;;;;15.35;90.62;100455.63;12213673;19;20007;-79
2022/09/20 09:37:31;;;;;;;12.40;3.92;;;;;;;15.94;83.53;100452.72;12192975;19;20029;-79
2022/09/20 09:41:34;;;;;;;6.97;3.40;;;;;;;16.29;72.29;100453.13;12215633;19;20007;-80
2022/09/20 09:45:39;;;;;;;;;;;;;;;15.83;71.62;100439.88;12213291;19;20015;-79
2022/09/20 09:49:56;;;;;;;8.85;2.97;;;;;;;15.93;72.82;100444.63;12192216;19;19918;-80
2022/09/20 09:54:03;;;;;;;9.50;3.25;;;;;;;16.33;69.57;100438.44;12210295;19;20011;-79
2022/09/20 09:58:21;;;;;;;9.63;3.38;;;;;;;16.78;69.07;100434.13;12211486;19;20007;-81
2022/09/20 10:02:41;;;;;;;10.27;3.15;;;;;;;16.68;67.22;100434.06;12210958;19;20039;-80
2022/09/20 10:06:56;;;;;;;10.40;3.20;;;;;;;16.25;69.83;100441.72;12211504;19;20007;-78
2022/09/20 10:11:36;;;;;;;9.85;3.30;;;;;;;15.88;69.34;100433.47;12189454;19;20010;-80
2022/09/20 10:15:55;;;;;;;9.15;2.50;;;;;;;15.69;69.94;100433.94;12208073;19;20018;-79
2022/09/20 10:20:06;;;;;;;8.45;2.67;;;;;;;16.21;69.63;100423.06;12192226;19;20037;-79
2022/09/20 10:24:30;;;;;;;9.10;2.60;;;;;;;17.20;63.03;100418.28;12208582;19;20026;-81
2022/09/20 10:28:47;;;;;;;8.15;2.00;;;;;;;17.65;59.61;100413.75;12189409;19;20015;-80
2022/09/20 10:33:13;;;;;;;5.63;2.00;;;;;;;17.55;58.99;100414.63;12208449;19;20014;-80
2022/09/20 10:37:39;;;;;;;5.78;1.83;;;;;;;17.41;59.83;100414.34;12185950;19;20014;-79
2022/09/20 10:46:51;;;;;;;8.13;2.17;;;;;;;16.70;61.79;100415.16;12184964;19;20006;-79
2022/09/20 10:50:58;;;;;;;9.80;2.22;;;;;;;16.58;62.96;100417.34;12212095;19;20011;-80
2022/09/20 10:55:03;;;;;;;9.15;2.78;;;;;;;16.59;63.69;100424.56;12207477;19;20034;-80
2022/09/20 10:59:41;;;;;;;4.45;2.38;;;;;;;16.60;65.54;100421.53;12189968;19;20028;-81
2022/09/20 11:04:14;;;;;;;4.07;2.03;;;;;;;16.76;67.12;100418.81;12210119;19;20002;-80
2022/09/20 11:08:25;;;;;;;6.53;2.85;;;;;;;16.97;66.82;100419.66;12187002;19;20006;-79
2022/09/20 11:12:38;;;;;;;5.07;2.58;;;;;;;16.90;67.04;100419.09;12207625;19;20789;-79
2022/09/20 11:16:51;;;;;;;5.03;2.42;;;;;;;16.76;68.49;100422.41;12185305;19;20032;-80
2022/09/20 11:21:27;;;;;;;6.93;2.42;;;;;;;17.69;65.11;100432.41;12214521;19;20031;-79
2022/09/20 11:25:43;;;;;;;4.72;1.95;;;;;;;18.63;60.71;100421.44;12187350;19;20017;-79
2022/09/20 11:29:52;;;;;;;5.22;2.35;;;;;;;18.79;58.45;100427.78;12210851;19;20011;-80
2022/09/20 11:34:13;;;;;;;6.47;1.92;;;;;;;18.57;56.94;100424.56;12217695;19;20434;-80
2022/09/20 11:38:24;;;;;;;6.65;2.47;;;;;;;18.09;56.54;100427.88;12194880;19;20015;-82
2022/09/20 11:42:35;;;;;;;4.60;2.25;;;;;;;17.55;57.95;100442.47;12219743;19;20118;-81
2022/09/20 11:47:11;;;;;;;7.35;2.35;;;;;;;16.83;59.10;100441.63;12196756;19;20037;-80
2022/09/20 11:51:42;;;;;;;7.57;2.65;;;;;;;16.44;64.18;100446.78;12219954;19;20007;-79
2022/09/20 11:55:57;;;;;;;8.85;2.60;;;;;;;15.93;69.27;100445.47;12197321;19;20011;-80
2022/09/20 12:00:03;;;;;;;5.05;2.53;;;;;;;15.67;73.32;100441.69;12229839;19;20019;-79
2022/09/20 12:04:25;;;;;;;;;;;;;;;15.50;75.13;100452.97;12203387;19;20014;-78
2022/09/20 12:08:41;;;;;;;7.63;2.40;;;;;;;15.39;75.71;100448.44;12225601;19;19919;-79
2022/09/20 12:12:45;;;;;;;6.60;2.28;;;;;;;15.55;75.86;100442.97;12224722;19;20030;-80
2022/09/20 12:16:48;;;;;;;6.80;2.80;;;;;;;16.41;76.64;100439.81;12200608;19;20059;-79
2022/09/20 12:21:15;;;;;;;7.93;2.10;;;;;;;17.88;68.42;100429.91;12233303;19;20397;-79
2022/09/20 12:25:38;;;;;;;4.10;1.70;;;;;;;18.38;64.12;100424.38;12202335;19;20031;-79
2022/09/20 12:30:02;;;;;;;4.65;2.33;;;;;;;18.42;62.63;100426.31;12226833;19;20007;-79
2022/09/20 12:34:24;;;;;;;5.75;2.33;;;;;;;18.72;62.65;100423.63;12218036;19;20215;-79
2022/09/20 12:38:30;;;;;;;5.38;1.98;;;;;;;19.18;62.54;100412.13;12196201;19;20487;-79
2022/09/20 12:42:32;;;;;;;5.63;2.80;;;;;;;19.87;58.82;100413.72;12225448;19;20015;-80
2022/09/20 12:46:40;;;;;;;;;;;;;;;20.34;59.72;100412.00;12191955;19;20750;-80
2022/09/20 12:55:03;;;;;;;5.35;2.17;;;;;;;20.00;55.59;100403.78;12218109;19;20003;-80
2022/09/20 12:59:29;;;;;;;5.70;2.38;;;;;;;19.06;56.17;100412.50;12200222;19;20075;-80
2022/09/20 13:03:37;;;;;;;4.38;2.03;;;;;;;18.62;58.47;100416.13;12220152;19;20098;-79
2022/09/20 13:07:45;;;;;;;7.85;1.95;;;;;;;18.28;59.23;100421.66;12193729;19;20014;-80
2022/09/20 13:11:55;;;;;;;4.90;2.15;;;;;;;18.36;58.12;100418.25;12216165;19;20014;-81
2022/09/20 13:16:00;;;;;;;6.00;2.40;;;;;;;18.68;57.40;100410.25;12214171;19;20354;-80
2022/09/20 13:20:02;;;;;;;4.68;2.05;;;;;;;19.08;56.28;100402.72;12197483;19;20017;-81
2022/09/20 13:24:06;;;;;;;6.28;2.15;;;;;;;18.74;54.70;100394.34;12219138;19;20028;-80
2022/09/20 13:28:28;;;;;;;5.88;1.83;;;;;;;18.43;53.41;100396.44;12217427;19;20007;-79
2022/09/20 13:32:31;;;;;;;4.80;1.52;;;;;;;18.17;52.65;100407.75;12192888;19;20011;-81
2022/09/20 13:36:34;;;;;;;3.35;1.60;;;;;;;18.06;52.08;100414.50;12211373;19;20007;-82
2022/09/20 13:40:41;;;;;;;5.75;1.92;;;;;;;18.09;53.48;100411.13;12192019;19;20015;-82
2022/09/20 13:44:43;;;;;;;3.90;2.00;;;;;;;18.39;53.44;100412.09;12213394;19;20074;-80
2022/09/20 13:48:52;;;;;;;7.28;2.58;;;;;;;19.10;51.82;100400.47;12213785;19;20006;-80
2022/09/20 13:52:56;;;;;;;6.00;2.28;;;;;;;19.35;52.31;100418.13;12188551;19;20635;-83
2022/09/20 13:57:09;;;;;;;6.63;2.13;;;;;;;18.41;54.06;100421.88;12211013;19;20003;-80
2022/09/20 14:01:29;;;;;;;6.25;2.28;;;;;;;18.00;56.69;100410.06;12217645;19;20522;-80
2022/09/20 14:05:32;;;;;;;5.82;2.00;;;;;;;17.63;58.28;100410.41;12195396;19;20011;-81
2022/09/20 14:09:38;;;;;;;5.13;2.13;;;;;;;17.19;61.77;100416.59;12215031;19;20017;-81
2022/09/20 14:13:42;;;;;;;4.95;2.05;;;;;;;17.02;62.14;100428.84;12189496;19;20041;-80
2022/09/20 14:17:45;;;;;;;7.30;2.20;;;;;;;16.92;63.69;100416.88;12211608;19;20668;-80
2022/09/20 14:21:47;;;;;;;6.15;2.33;;;;;;;16.79;63.55;100418.25;12214839;19;20006;-80
2022/09/20 14:26:28;;;;;;;6.65;2.42;;;;;;;16.61;64.09;100417.63;12187103;19;20398;-80
2022/09/20 14:30:36;;;;;;;4.30;2.30;;;;;;;16.99;62.69;100407.13;12210089;19;20095;-80
2022/09/20 14:34:40;;;;;;;4.55;2.42;;;;;;;17.49;60.50;100402.66;12186158;19;20019;-79
2022/09/20 14:38:43;;;;;;;7.55;2.63;;;;;;;18.06;58.65;100402.50;12210266;19;20397;-79
2022/09/20 14:42:49;;;;;;;5.97;2.10;;;;;;;18.41;58.61;100405.13;12210476;19;20014;-80
2022/09/20 14:46:51;;;;;;;5.35;2.45;;;;;;;18.49;58.47;100395.28;12186740;19;20014;-81
2022/09/20 14:51:11;;;;;;;6.68;2.45;;;;;;;18.20;58.87;100393.25;12210814;19;20010;-81
2022/09/20 14:55:13;;;;;;;5.35;2.10;;;;;;;17.99;58.36;100386.91;12209293;19;20010;-82
2022/09/20 14:59:20;;;;;;;8.70;2.28;;;;;;;17.76;57.64;100390.31;12189221;19;20042;-80
2022/09/20 15:03:25;;;;;;;7.00;2.00;;;;;;;17.44;57.25;100390.66;12210522;19;20476;-81
2022/09/20 15:07:27;;;;;;;4.85;2.10;;;;;;;17.03;56.51;100390.69;12197547;19;21142;-81
2022/09/20 15:11:29;;;;;;;5.57;2.23;;;;;;;16.85;57.85;100384.56;12221729;19;20014;-80
2022/09/20 15:15:31;;;;;;;8.65;2.33;;;;;;;16.76;58.30;100383.47;12219043;19;20034;-80
2022/09/20 15:19:33;;;;;;;3.78;1.83;;;;;;;16.61;59.17;100384.25;12202585;19;20491;-80
2022/09/20 15:23:35;;;;;;;5.30;2.08;;;;;;;16.45;59.81;100384.47;12223085;19;20038;-80
2022/09/20 15:27:37;;;;;;;6.50;2.47;;;;;;;16.38;60.06;100388.38;12217677;19;20022;-79
2022/09/20 15:31:39;;;;;;;5.38;1.98;;;;;;;16.37;60.63;100383.91;12195998;19;20025;-82
2022/09/20 15:35:44;;;;;;;13.48;2.88;;;;;;;16.46;60.07;100381.44;12210781;19;20015;-81
2022/09/20 15:39:45;;;;;;;;;;;;;;;16.56;60.65;100378.66;12219768;19;20357;-81
2022/09/20 15:43:48;;;;;;;5.15;1.60;;;;;;;16.49;60.57;100380.06;12199541;19;20345;-80
2022/09/20 15:47:54;;;;;;;3.60;1.88;;;;;;;16.49;59.16;100377.28;12217684;19;20007;-81
2022/09/20 15:51:56;;;;;;;5.07;1.48;;;;;;;16.33;58.50;100381.94;12218199;19;20048;-81
2022/09/20 15:56:01;;;;;;;4.57;1.73;;;;;;;16.14;57.40;100390.78;12220098;19;20010;-80
2022/09/20 16:00:03;;;;;;;2.67;1.33;;;;;;;15.94;57.02;100379.59;12244663;19;20011;-80
2022/09/20 16:04:13;;;;;;;2.83;1.17;;;;;;;15.73;58.01;100381.44;12216249;19;20050;-82
2022/09/20 16:08:16;;;;;;;3.15;1.17;;;;;;;15.60;58.06;100379.97;12190736;19;20034;-82
2022/09/20 16:12:19;;;;;;;3.57;0.90;;;;;;;15.64;58.30;100386.66;12208442;19;20053;-81
2022/09/20 16:16:21;;;;;;;1.42;0.80;;;;;;;15.78;57.74;100388.97;12186452;19;20266;-82
2022/09/20 16:20:23;;;;;;;2.73;1.03;;;;;;;15.74;56.76;100391.47;12216441;19;20010;-81
2022/09/20 16:24:28;;;;;;;2.08;0.90;;;;;;;15.74;57.27;100399.81;12207850;19;20031;-81
2022/09/20 16:28:29;;;;;;;2.28;1.08;;;;;;;15.70;58.40;100398.66;12189536;19;20010;-81
2022/09/20 16:32:31;;;;;;;4.50;0.90;;;;;;;15.49;58.18;100403.22;12211663;19;20010;-81
2022/09/20 16:36:33;;;;;;;1.88;0.90;;;;;;;15.33;59.26;100413.41;12202261;19;20010;-81
2022/09/20 16:40:35;;;;;;;2.58;1.17;;;;;;;15.21;59.62;100410.81;12186863;19;20015;-82
2022/09/20 16:44:39;;;;;;;3.03;0.83;;;;;;;15.12;60.14;100411.59;12205785;19;20011;-81
2022/09/20 16:48:41;;;;;;;4.75;1.20;;;;;;;14.97;60.88;100404.81;12208007;19;20394;-81
2022/09/20 16:52:43;;;;;;;2.70;0.95;;;;;;;14.78;61.61;100418.22;12183724;19;20011;-81
2022/09/20 16:56:47;;;;;;;1.73;0.90;;;;;;;14.59;61.89;100417.75;12203980;19;20010;-81
2022/09/20 17:00:48;;;;;;;5.82;1.10;;;;;;;14.36;62.69;100416.06;12205371;19;20256;-81
2022/09/20 17:04:50;;;;;;;2.95;1.35;;;;;;;14.12;64.12;100426.63;12182341;19;20011;-81
2022/09/20 17:08:54;;;;;;;4.95;1.20;;;;;;;13.88;64.96;100434.34;12206896;19;20456;-81
2022/09/20 17:12:59;;;;;;;3.20;1.50;;;;;;;13.64;67.69;100436.50;12204301;19;20690;-80
2022/09/20 17:17:01;;;;;;;3.83;1.30;;;;;;;13.39;68.95;100447.22;12189421;19;20022;-81
2022/09/20 17:21:07;;;;;;;3.33;1.77;;;;;;;13.15;70.53;100449.28;12216835;19;20407;-81
2022/09/20 17:25:09;;;;;;;7.07;1.30;;;;;;;12.91;71.55;100452.22;12219455;19;20023;-81
2022/09/20 17:29:16;;;;;;;4.28;1.23;;;;;;;12.71;72.53;100460.97;12190754;19;20456;-80
2022/09/20 17:33:17;;;;;;;3.22;1.33;;;;;;;12.53;73.40;100458.41;12211892;19;20015;-80
2022/09/20 17:37:20;;;;;;;2.75;1.45;;;;;;;12.37;74.48;100460.00;12184972;19;20071;-79
2022/09/20 17:41:22;;;;;;;5.85;1.92;;;;;;;12.22;75.33;100463.31;12207034;19;20353;-80
2022/09/20 17:45:23;;;;;;;4.60;1.47;;;;;;;12.07;76.37;100474.03;12208455;19;20014;-80
2022/09/20 17:49:26;;;;;;;5.60;1.60;;;;;;;11.91;77.77;100477.56;12189181;19;20045;-80
2022/09/20 17:53:32;;;;;;;2.88;1.38;;;;;;;11.79;79.48;100477.56;12208395;19;20028;-81
2022/09/20 17:57:36;;;;;;;6.82;1.60;;;;;;;11.69;81.16;100477.31;12208023;19;20551;-79
2022/09/20 18:01:39;;;;;;;4.32;1.50;;;;;;;11.62;82.33;100485.72;12189482;19;19999;-80
2022/09/20 18:05:40;;;;;;;7.38;1.30;;;;;;;11.55;83.20;100487.78;12210554;19;20022;-80
2022/09/20 18:09:42;;;;;;;8.90;1.80;;;;;;;11.48;84.00;100489.78;12210605;19;20003;-81
2022/09/20 18:13:44;;;;;;;3.58;1.55;;;;;;;11.44;85.17;100494.94;12187410;19;20030;-80
2022/09/20 18:17:45;;;;;;;3.72;1.80;;;;;;;11.43;85.50;100493.28;12206963;19;20016;-80
2022/09/20 18:21:52;;;;;;;3.95;1.65;;;;;;;11.47;86.61;100500.00;12214725;19;20014;-81
2022/09/20 18:30:16;;;;;;;2.85;1.50;;;;;;;11.59;87.26;100508.28;12209041;19;20110;-80
2022/09/20 18:34:23;;;;;;;4.97;1.80;;;;;;;11.62;87.66;100514.16;12187469;19;20015;-80
2022/09/20 18:38:25;;;;;;;6.90;1.60;;;;;;;11.72;87.98;100513.56;12207315;19;20006;-79
2022/09/20 18:42:27;;;;;;;4.55;1.52;;;;;;;11.78;88.15;100520.91;12232430;19;20085;-78
2022/09/20 18:46:44;;;;;;;4.32;1.45;;;;;;;11.83;87.81;100518.22;12208474;19;20459;-79
2022/09/20 18:56:24;;;;;;;3.40;1.80;;;;;;;11.92;88.11;100531.72;12232172;19;20037;-80
2022/09/20 19:01:34;;;;;;;3.22;1.67;;;;;;;11.99;88.62;100536.03;12234577;19;20332;-80
2022/09/20 19:06:14;;;;;;;5.28;2.05;;;;;;;12.02;88.34;100540.25;12231982;19;20054;-81
2022/09/20 19:11:00;;;;;;;5.30;2.08;;;;;;;12.03;89.30;100537.22;12207697;19;20025;-81
2022/09/20 19:15:34;;;;;;;4.78;1.67;;;;;;;12.03;89.34;100548.28;12228802;19;20014;-80
2022/09/20 19:19:44;;;;;;;6.78;2.00;;;;;;;12.04;89.36;100554.63;12213766;19;20086;-79
2022/09/20 19:24:01;;;;;;;8.70;2.13;;;;;;;12.03;90.73;100559.31;12273564;19;20024;-79
2022/09/20 19:28:10;;;;;;;3.88;2.05;;;;;;;12.04;90.53;100565.69;12276149;19;20017;-79
2022/09/20 19:32:20;;;;;;;5.03;1.95;;;;;;;12.08;90.18;100566.91;12252850;19;20270;-79
2022/09/20 19:36:24;;;;;;;13.20;5.93;;;;;;;12.11;90.08;100566.41;12274441;19;20122;-79